Terminal Aerodrome Forecast
Issued by NWS

Home | Current Version | Previous Version | Text Only | Print | Product List | Glossary On
Versions: 1 2 3 4 5 6 7 8 9 10 11 12 13 14 15 16 17
000
FTUS46 KLOX 210500
TAFLGB
TAF
KLGB 210523Z 2106/2206 VRB03KT P6SM SKC
     FM210800 VRB03KT P6SM OVC015
     FM211600 16005KT P6SM BKN022
     FM211900 18008KT P6SM FEW025
     FM220100 29008KT P6SM SKC
     FM220500 VRB03KT P6SM SKC=

USA.gov is the U.S. government's official web portal to all federal, state and local government web resources and services.